Time;durP1;ratioP1;P1;durP2;ratioP2;P2;SDS_P1;SDS_P2;PMS_P1;PMS_P2;Temp;Humidity;BMP_temperature;BMP_pressure;BME280_temperature;BME280_humidity;BME280_pressure;Samples;Min_cycle;Max_cycle;Signal;HPM_P1;HPM_P2
2022/06/21 00:00:27;;;;;;;4.68;2.67;;;19.00;58.80;;;;;;5143266;27;20195;-87
2022/06/21 00:03:09;;;;;;;3.95;2.63;;;19.00;59.90;;;;;;5141055;27;20198;-87
2022/06/21 00:05:39;;;;;;;3.03;2.58;;;19.00;59.50;;;;;;5124905;27;20241;-87
2022/06/21 00:08:12;;;;;;;3.45;2.72;;;19.00;59.10;;;;;;5131119;27;20207;-87
2022/06/21 00:10:44;;;;;;;2.90;2.60;;;19.00;59.40;;;;;;5136898;27;20199;-87
2022/06/21 00:13:15;;;;;;;2.70;2.35;;;19.10;59.90;;;;;;5134168;27;20203;-87
2022/06/21 00:15:44;;;;;;;3.38;2.60;;;19.10;59.10;;;;;;5136399;27;20207;-87
2022/06/21 00:18:13;;;;;;;3.25;2.40;;;19.00;59.70;;;;;;5137633;27;20201;-87
2022/06/21 00:20:49;;;;;;;2.70;2.50;;;18.90;60.10;;;;;;5146650;27;20199;-86
2022/06/21 00:23:21;;;;;;;2.72;2.42;;;18.80;61.10;;;;;;5133656;27;20417;-87
2022/06/21 00:25:50;;;;;;;4.93;2.58;;;18.80;63.60;;;;;;5139296;27;20226;-87
2022/06/21 00:28:20;;;;;;;3.65;2.72;;;18.70;64.40;;;;;;5135476;27;20210;-89
2022/06/21 00:30:55;;;;;;;2.53;2.33;;;18.60;65.30;;;;;;5129052;27;20658;-89
2022/06/21 00:33:36;;;;;;;3.33;2.55;;;18.50;66.40;;;;;;5122907;27;20237;-87
2022/06/21 00:36:24;;;;;;;2.90;2.60;;;18.40;67.20;;;;;;5129975;27;20669;-90
2022/06/21 00:38:51;;;;;;;4.85;2.38;;;18.30;69.40;;;;;;5139296;27;20199;-86
2022/06/21 00:41:35;;;;;;;5.10;2.35;;;18.30;68.70;;;;;;5136955;27;20207;-87
2022/06/21 00:44:04;;;;;;;3.95;2.20;;;18.20;69.30;;;;;;5134734;27;20195;-86
2022/06/21 00:46:40;;;;;;;2.70;2.13;;;18.20;68.40;;;;;;5140121;27;20262;-87
2022/06/21 00:49:25;;;;;;;4.05;2.20;;;18.10;69.40;;;;;;5147524;27;20237;-87
2022/06/21 00:51:57;;;;;;;2.20;2.00;;;18.10;67.70;;;;;;5138025;27;20207;-87
2022/06/21 00:54:39;;;;;;;2.78;2.30;;;18.10;68.30;;;;;;5145239;27;20252;-86
2022/06/21 00:57:19;;;;;;;3.45;2.13;;;18.00;69.50;;;;;;5148079;27;20199;-87
2022/06/21 00:59:53;;;;;;;4.00;2.00;;;18.10;68.90;;;;;;5132365;27;20206;-87
2022/06/21 01:02:22;;;;;;;2.65;1.70;;;18.10;67.30;;;;;;5127843;27;20213;-87
2022/06/21 01:04:57;;;;;;;4.90;1.60;;;18.00;65.60;;;;;;5142392;27;20187;-87
2022/06/21 01:07:24;;;;;;;3.28;1.98;;;17.90;64.30;;;;;;5139461;27;20191;-87
2022/06/21 01:09:54;;;;;;;1.80;1.70;;;17.80;64.40;;;;;;5132774;27;20199;-86
2022/06/21 01:12:29;;;;;;;2.75;2.00;;;17.80;65.90;;;;;;5140272;27;20202;-87
2022/06/21 01:15:00;;;;;;;2.22;1.90;;;17.60;65.20;;;;;;5144784;27;20206;-86
2022/06/21 01:17:28;;;;;;;2.08;1.50;;;17.60;62.70;;;;;;5136252;27;20196;-87
2022/06/21 01:19:59;;;;;;;3.47;1.92;;;17.50;61.30;;;;;;5141890;27;20205;-87
2022/06/21 01:22:37;;;;;;;1.83;1.52;;;17.40;62.00;;;;;;5133625;27;20250;-87
2022/06/21 01:25:23;;;;;;;2.63;1.70;;;17.40;58.60;;;;;;5136812;27;20203;-86
2022/06/21 01:28:03;;;;;;;3.00;1.50;;;17.30;57.80;;;;;;5130865;27;20300;-87
2022/06/21 01:30:31;;;;;;;4.72;1.30;;;17.40;57.40;;;;;;5122030;27;20196;-86
2022/06/21 01:32:59;;;;;;;2.78;1.60;;;17.30;50.40;;;;;;5115058;27;20195;-87
2022/06/21 01:35:36;;;;;;;3.08;1.35;;;17.30;50.00;;;;;;5133016;27;20212;-86
2022/06/21 01:38:17;;;;;;;2.13;1.40;;;17.10;48.80;;;;;;5140266;27;20213;-87
2022/06/21 01:40:47;;;;;;;4.30;1.10;;;17.20;43.50;;;;;;5138055;27;20786;-86
2022/06/21 01:43:33;;;;;;;1.88;1.05;;;17.10;40.50;;;;;;5129549;27;20226;-87
2022/06/21 01:46:04;;;;;;;3.03;1.10;;;17.00;39.30;;;;;;5137173;27;20279;-87
2022/06/21 01:48:35;;;;;;;1.15;1.08;;;16.90;34.90;;;;;;5145741;27;20258;-87
2022/06/21 01:51:24;;;;;;;1.75;1.15;;;16.80;33.50;;;;;;5125661;27;20202;-86
2022/06/21 01:53:56;;;;;;;1.65;1.17;;;16.80;35.10;;;;;;5139801;27;20195;-86
2022/06/21 01:56:37;;;;;;;2.00;1.25;;;17.00;38.40;;;;;;5136659;27;20234;-86
2022/06/21 01:59:12;;;;;;;1.35;1.20;;;17.00;38.40;;;;;;5130752;27;20222;-87
2022/06/21 02:01:47;;;;;;;1.40;1.00;;;17.10;42.40;;;;;;5136125;27;20202;-86
2022/06/21 02:04:28;;;;;;;2.15;1.10;;;17.10;40.60;;;;;;5145022;27;20230;-86
2022/06/21 02:07:04;;;;;;;2.65;1.27;;;17.10;41.20;;;;;;5140242;27;20221;-86
2022/06/21 02:09:43;;;;;;;1.90;1.10;;;16.90;42.90;;;;;;5121132;27;20606;-87
2022/06/21 02:12:14;;;;;;;1.52;1.30;;;16.70;43.80;;;;;;5129620;27;20222;-87
2022/06/21 02:14:46;;;;;;;1.67;1.27;;;16.60;45.20;;;;;;5143838;27;20203;-86
2022/06/21 02:17:20;;;;;;;2.67;1.50;;;16.70;46.10;;;;;;5137287;27;20199;-86
2022/06/21 02:20:02;;;;;;;2.88;1.15;;;16.70;46.30;;;;;;5144082;27;20209;-86
2022/06/21 02:22:43;;;;;;;1.20;1.10;;;16.80;43.30;;;;;;5126196;27;20267;-87
2022/06/21 02:25:16;;;;;;;1.30;1.20;;;16.90;42.70;;;;;;5134079;27;20271;-87
2022/06/21 02:27:50;;;;;;;1.58;1.20;;;16.90;42.70;;;;;;5136245;27;20252;-86
2022/06/21 02:30:24;;;;;;;2.17;1.20;;;16.80;43.00;;;;;;5133003;27;20565;-87
2022/06/21 02:32:53;;;;;;;1.45;1.30;;;16.80;44.40;;;;;;5131201;27;20187;-87
2022/06/21 02:35:26;;;;;;;1.95;1.67;;;16.60;44.40;;;;;;5142211;27;20191;-86
2022/06/21 02:37:56;;;;;;;3.25;1.38;;;16.50;44.60;;;;;;5140265;27;20196;-90
2022/06/21 02:40:28;;;;;;;2.15;1.00;;;16.40;45.30;;;;;;5117482;27;20227;-89
2022/06/21 02:43:00;;;;;;;1.75;1.00;;;16.40;45.30;;;;;;5121099;27;20196;-89
2022/06/21 02:45:33;;;;;;;1.50;1.15;;;16.50;45.90;;;;;;5127574;27;20196;-89
2022/06/21 02:48:15;;;;;;;3.35;1.25;;;16.50;44.20;;;;;;5136749;27;20652;-89
2022/06/21 02:50:59;;;;;;;1.88;1.10;;;16.50;45.70;;;;;;5135626;27;20214;-89
2022/06/21 02:53:30;;;;;;;2.28;1.20;;;16.40;46.50;;;;;;5129244;27;20214;-89
2022/06/21 02:56:06;;;;;;;2.33;1.30;;;16.40;46.40;;;;;;5126496;27;20197;-90
2022/06/21 02:58:38;;;;;;;2.95;1.05;;;16.40;46.10;;;;;;5127181;27;20191;-89
2022/06/21 03:01:15;;;;;;;2.78;1.30;;;16.60;47.00;;;;;;5108812;27;20203;-89
2022/06/21 03:03:43;;;;;;;3.50;1.25;;;16.60;46.70;;;;;;5106467;28;20193;-89
2022/06/21 03:06:42;;;;;;;2.28;0.93;;;16.70;46.00;;;;;;5135520;27;20262;-89
2022/06/21 03:09:15;;;;;;;2.42;1.10;;;16.50;46.30;;;;;;5131729;27;20192;-90
2022/06/21 03:11:45;;;;;;;3.85;1.20;;;16.40;47.60;;;;;;5130476;27;20199;-89
2022/06/21 03:14:16;;;;;;;2.47;1.25;;;16.30;50.40;;;;;;5124507;27;20200;-89
2022/06/21 03:16:52;;;;;;;2.15;0.98;;;16.40;48.60;;;;;;5121327;27;20191;-89
2022/06/21 03:20:00;;;;;;;1.63;1.00;;;16.50;49.30;;;;;;5127251;27;20202;-89
2022/06/21 03:22:32;;;;;;;4.10;1.35;;;16.30;49.00;;;;;;5124945;27;20227;-86
2022/06/21 03:25:17;;;;;;;2.30;1.30;;;16.20;50.10;;;;;;5131007;27;20202;-88
2022/06/21 03:27:50;;;;;;;3.10;1.30;;;16.10;52.30;;;;;;5127482;27;20211;-88
2022/06/21 03:30:19;;;;;;;1.75;1.15;;;16.10;52.30;;;;;;5128909;27;20191;-87
2022/06/21 03:32:50;;;;;;;1.60;1.20;;;16.10;52.30;;;;;;5128218;27;20197;-88
2022/06/21 03:35:17;;;;;;;1.52;1.23;;;16.20;52.40;;;;;;5133122;27;20191;-89
2022/06/21 03:37:45;;;;;;;1.98;1.25;;;16.20;52.50;;;;;;5139671;27;20188;-88
2022/06/21 03:43:09;;;;;;;2.53;1.25;;;16.10;52.30;;;;;;5137633;27;20199;-88
2022/06/21 03:45:40;;;;;;;1.30;1.20;;;16.10;52.60;;;;;;5136718;28;20198;-88
2022/06/21 03:48:34;;;;;;;2.80;1.40;;;16.20;52.40;;;;;;5131794;28;20203;-88
2022/06/21 03:51:11;;;;;;;2.97;1.50;;;16.20;52.40;;;;;;5137182;27;20307;-88
2022/06/21 03:53:45;;;;;;;1.85;1.30;;;16.20;52.40;;;;;;5138041;27;20198;-88
2022/06/21 03:56:21;;;;;;;3.33;1.40;;;16.10;52.30;;;;;;5126116;28;20200;-88
2022/06/21 03:58:55;;;;;;;2.03;1.20;;;16.20;52.40;;;;;;5123370;28;20198;-88
2022/06/21 04:01:44;;;;;;;4.32;1.30;;;16.30;52.50;;;;;;5116288;28;20270;-88
2022/06/21 04:04:21;;;;;;;4.40;1.23;;;16.40;53.80;;;;;;5133747;27;20195;-88
2022/06/21 04:06:54;;;;;;;2.00;1.30;;;16.30;52.50;;;;;;5122491;28;20214;-89
2022/06/21 04:09:46;;;;;;;6.25;1.23;;;16.30;52.50;;;;;;5135955;27;20296;-88
2022/06/21 04:12:20;;;;;;;2.83;1.27;;;16.20;52.40;;;;;;5128674;28;20202;-88
2022/06/21 04:14:54;;;;;;;2.05;1.35;;;16.10;52.30;;;;;;5122249;28;20202;-88
2022/06/21 04:17:27;;;;;;;11.27;7.95;;;16.10;52.30;;;;;;5120272;28;20191;-88
2022/06/21 04:20:01;;;;;;;17.33;15.05;;;16.30;52.50;;;;;;5127241;27;20211;-88
2022/06/21 04:22:35;;;;;;;2.45;1.38;;;16.50;52.70;;;;;;5127457;28;20196;-89
2022/06/21 04:25:16;;;;;;;1.73;1.35;;;16.60;51.40;;;;;;5130065;27;20202;-89
2022/06/21 04:27:54;;;;;;;3.45;1.25;;;16.40;52.60;;;;;;5126718;28;20227;-89
2022/06/21 04:30:32;;;;;;;2.83;1.40;;;16.20;52.50;;;;;;5115498;27;20184;-88
2022/06/21 04:33:07;;;;;;;1.90;1.45;;;16.10;53.50;;;;;;5120892;27;20207;-89
2022/06/21 04:35:39;;;;;;;4.13;1.80;;;16.10;52.70;;;;;;5135684;27;20203;-88
2022/06/21 04:38:10;;;;;;;1.50;1.40;;;16.10;52.30;;;;;;5127532;27;20207;-87
2022/06/21 04:40:41;;;;;;;2.00;1.50;;;16.20;52.40;;;;;;5135886;27;20562;-87
2022/06/21 04:43:15;;;;;;;2.55;1.50;;;16.10;52.30;;;;;;5150586;27;20198;-87
2022/06/21 04:45:48;;;;;;;4.50;1.30;;;16.20;52.40;;;;;;5144478;27;20195;-89
2022/06/21 04:48:29;;;;;;;3.38;1.40;;;16.20;52.50;;;;;;5139314;27;20222;-88
2022/06/21 04:51:04;;;;;;;3.15;1.40;;;16.10;52.40;;;;;;5147361;27;20195;-88
2022/06/21 04:53:54;;;;;;;2.15;1.38;;;16.00;52.30;;;;;;5146569;27;20202;-87
2022/06/21 04:56:31;;;;;;;1.90;1.40;;;16.00;52.30;;;;;;5143333;27;20197;-87
2022/06/21 04:59:13;;;;;;;3.95;1.52;;;16.00;52.30;;;;;;5137853;27;20528;-87
2022/06/21 05:01:40;;;;;;;3.53;1.42;;;16.10;52.30;;;;;;5142791;27;20214;-88
2022/06/21 05:04:12;;;;;;;2.22;1.50;;;16.10;52.40;;;;;;5134438;27;20561;-89
2022/06/21 05:06:45;;;;;;;3.75;1.42;;;16.10;52.30;;;;;;5135949;27;20219;-89
2022/06/21 05:09:15;;;;;;;1.48;1.38;;;16.20;52.30;;;;;;5130301;27;20193;-89
2022/06/21 05:11:42;;;;;;;3.83;1.52;;;16.20;53.60;;;;;;5114933;27;20214;-89
2022/06/21 05:14:18;;;;;;;3.80;1.50;;;16.20;51.70;;;;;;5134165;27;20991;-90
2022/06/21 05:17:19;;;;;;;2.17;1.70;;;16.20;52.40;;;;;;5118269;27;20255;-89
2022/06/21 05:19:53;;;;;;;3.65;1.60;;;16.30;52.60;;;;;;5135267;27;20204;-91
2022/06/21 05:22:28;;;;;;;2.83;1.73;;;16.60;52.90;;;;;;5141227;27;20200;-89
2022/06/21 05:24:56;;;;;;;3.40;1.65;;;16.50;48.00;;;;;;5131541;27;20274;-87
2022/06/21 05:27:29;;;;;;;2.58;1.48;;;16.60;46.40;;;;;;5137801;27;20305;-88
2022/06/21 05:30:06;;;;;;;2.00;1.60;;;16.60;43.60;;;;;;5113148;27;20210;-88
2022/06/21 05:32:38;;;;;;;3.63;1.70;;;16.60;44.00;;;;;;5141893;27;20200;-88
2022/06/21 05:35:33;;;;;;;2.83;1.65;;;16.60;44.20;;;;;;5125986;27;20203;-92
2022/06/21 05:38:11;;;;;;;1.75;1.65;;;16.60;44.00;;;;;;5134494;27;20206;-88
2022/06/21 05:40:43;;;;;;;4.20;1.50;;;16.50;46.20;;;;;;5138206;27;20229;-88
2022/06/21 05:43:16;;;;;;;4.28;1.35;;;16.60;45.70;;;;;;5135705;27;20223;-89
2022/06/21 05:45:52;;;;;;;2.50;1.40;;;16.70;44.20;;;;;;5141709;27;20191;-88
2022/06/21 05:48:34;;;;;;;3.70;1.60;;;16.80;44.00;;;;;;5144066;27;20441;-88
2022/06/21 05:51:04;;;;;;;3.13;1.65;;;16.80;44.60;;;;;;5133173;27;20187;-88
2022/06/21 05:53:34;;;;;;;5.75;1.55;;;16.70;46.10;;;;;;5128381;27;20191;-90
2022/06/21 05:56:07;;;;;;;3.75;1.45;;;16.70;45.40;;;;;;5139582;27;20195;-88
2022/06/21 05:58:39;;;;;;;3.45;1.60;;;16.70;46.70;;;;;;5124874;27;20203;-89
2022/06/21 06:01:13;;;;;;;5.22;1.70;;;16.80;46.80;;;;;;5133229;27;20192;-89
2022/06/21 06:03:45;;;;;;;2.97;1.50;;;16.80;48.10;;;;;;5120073;27;20207;-89
2022/06/21 06:06:16;;;;;;;2.72;1.60;;;16.90;46.80;;;;;;5126102;27;20718;-92
2022/06/21 06:08:49;;;;;;;2.10;1.52;;;17.20;47.30;;;;;;5124090;27;20215;-91
2022/06/21 06:11:58;;;;;;;1.67;1.50;;;17.20;45.90;;;;;;5109520;27;20200;-91
2022/06/21 06:14:43;;;;;;;4.30;1.70;;;17.00;47.20;;;;;;5128570;27;20210;-92
2022/06/21 06:17:44;;;;;;;4.53;1.42;;;17.10;49.30;;;;;;5125568;27;20575;-92
2022/06/21 06:20:18;;;;;;;1.73;1.60;;;17.20;46.00;;;;;;5129249;27;20711;-89
2022/06/21 06:22:59;;;;;;;2.22;1.60;;;17.20;46.70;;;;;;5127095;27;20244;-89
2022/06/21 06:25:33;;;;;;;2.58;1.60;;;17.20;47.10;;;;;;5114043;27;20209;-92
2022/06/21 06:28:16;;;;;;;3.13;1.60;;;17.30;49.20;;;;;;5116600;27;20291;-90
2022/06/21 06:31:02;;;;;;;2.67;1.70;;;17.50;47.00;;;;;;5125563;27;20207;-92
2022/06/21 06:33:47;;;;;;;2.60;1.38;;;17.70;46.80;;;;;;5123918;27;20194;-91
2022/06/21 06:36:27;;;;;;;4.30;1.58;;;17.90;46.70;;;;;;5129276;27;21380;-92
2022/06/21 06:39:21;;;;;;;3.28;1.73;;;17.80;44.20;;;;;;5096791;27;20202;-91
2022/06/21 06:45:23;;;;;;;5.85;1.80;;;18.00;44.50;;;;;;5132424;27;20194;-92
2022/06/21 06:48:02;;;;;;;4.82;1.70;;;17.90;43.30;;;;;;5126532;27;20254;-87
2022/06/21 06:50:55;;;;;;;5.82;1.50;;;18.00;42.70;;;;;;5124886;28;20643;-84
2022/06/21 06:53:32;;;;;;;6.63;1.88;;;18.20;43.80;;;;;;5121755;27;20203;-85
2022/06/21 06:56:03;;;;;;;1.98;1.58;;;18.30;41.60;;;;;;5137965;27;20197;-84
2022/06/21 06:58:42;;;;;;;4.13;1.73;;;18.20;42.00;;;;;;5130039;27;20204;-84
2022/06/21 07:01:17;;;;;;;3.33;1.58;;;18.60;41.90;;;;;;5127807;27;20187;-85
2022/06/21 07:03:48;;;;;;;3.88;1.83;;;18.70;40.10;;;;;;5132967;27;20201;-85
2022/06/21 07:06:41;;;;;;;5.40;1.70;;;18.80;39.10;;;;;;5121295;27;20192;-85
2022/06/21 07:09:18;;;;;;;3.28;1.70;;;18.80;38.70;;;;;;5128605;27;20651;-85
2022/06/21 07:12:16;;;;;;;3.83;1.83;;;18.80;38.70;;;;;;5129619;27;20196;-85
2022/06/21 07:14:45;;;;;;;6.18;1.70;;;18.90;39.10;;;;;;5125862;27;20224;-85
2022/06/21 07:17:32;;;;;;;5.32;1.70;;;18.90;41.50;;;;;;5103552;28;20192;-85
2022/06/21 07:20:26;;;;;;;3.47;1.67;;;18.90;38.90;;;;;;5131050;27;20193;-84
2022/06/21 07:22:56;;;;;;;4.20;1.80;;;18.80;37.30;;;;;;5130042;27;20203;-84
2022/06/21 07:25:32;;;;;;;5.75;1.63;;;18.70;40.00;;;;;;5134120;27;20195;-84
2022/06/21 07:28:05;;;;;;;3.13;1.58;;;18.60;38.70;;;;;;5131373;27;20207;-84
2022/06/21 07:30:39;;;;;;;5.05;1.60;;;18.60;39.30;;;;;;5138536;27;20194;-84
2022/06/21 07:33:48;;;;;;;2.22;1.63;;;18.80;41.10;;;;;;5128839;27;20719;-87
2022/06/21 07:36:20;;;;;;;3.15;1.65;;;19.00;40.00;;;;;;5141444;27;20219;-83
2022/06/21 07:38:52;;;;;;;3.40;1.42;;;19.30;38.10;;;;;;5133253;27;20218;-84
2022/06/21 07:42:07;;;;;;;4.95;1.70;;;19.20;34.50;;;;;;5132457;27;20215;-84
2022/06/21 07:44:56;;;;;;;4.88;1.52;;;19.10;35.20;;;;;;5142590;27;20650;-84
2022/06/21 07:47:28;;;;;;;5.63;2.10;;;19.30;34.60;;;;;;5128513;27;20203;-86
2022/06/21 07:50:33;;;;;;;3.13;1.50;;;19.40;35.10;;;;;;5124293;27;20192;-83
2022/06/21 07:53:30;;;;;;;5.15;1.70;;;19.30;35.10;;;;;;5127550;28;20195;-83
2022/06/21 07:56:16;;;;;;;4.75;2.00;;;19.60;33.80;;;;;;5129977;27;20193;-84
2022/06/21 07:58:48;;;;;;;3.83;1.70;;;19.70;34.80;;;;;;5138537;27;20191;-83
2022/06/21 08:07:11;;;;;;;11.75;1.73;;;20.40;32.40;;;;;;5116632;27;20704;-84
2022/06/21 08:09:50;;;;;;;2.67;1.63;;;20.40;32.40;;;;;;5131018;27;20196;-83
2022/06/21 08:12:20;;;;;;;3.97;1.80;;;20.40;32.40;;;;;;5124246;27;20669;-83
2022/06/21 08:14:49;;;;;;;3.90;1.60;;;20.50;32.50;;;;;;5129063;27;20654;-83
2022/06/21 08:17:31;;;;;;;5.10;1.70;;;20.40;30.90;;;;;;5131450;27;20194;-83
2022/06/21 08:20:05;;;;;;;2.10;1.42;;;20.70;29.00;;;;;;5128349;27;20200;-84
2022/06/21 08:22:42;;;;;;;3.00;1.58;;;20.80;27.20;;;;;;5142858;27;20667;-83
2022/06/21 08:25:31;;;;;;;4.70;1.60;;;20.80;27.00;;;;;;5144374;27;20198;-83
2022/06/21 08:28:22;;;;;;;6.50;1.80;;;20.90;26.30;;;;;;5127251;27;20216;-84
2022/06/21 08:30:53;;;;;;;1.90;1.42;;;20.90;25.80;;;;;;5124845;27;20283;-83
2022/06/21 08:33:43;;;;;;;4.53;1.77;;;21.40;25.30;;;;;;5131368;27;20199;-84
2022/06/21 08:36:16;;;;;;;4.32;1.70;;;21.70;23.40;;;;;;5127180;27;20200;-84
2022/06/21 08:38:47;;;;;;;2.42;1.67;;;21.40;23.50;;;;;;5126978;27;20199;-85
2022/06/21 08:41:59;;;;;;;4.18;1.70;;;21.70;24.10;;;;;;5133155;27;20208;-84
2022/06/21 08:45:43;;;;;;;6.60;2.00;;;21.80;24.20;;;;;;5064673;28;20263;-83
2022/06/21 08:48:47;;;;;;;3.50;1.88;;;22.10;22.00;;;;;;5059760;28;20220;-85
2022/06/21 08:51:51;;;;;;;2.80;1.75;;;22.30;22.20;;;;;;5068547;28;20236;-86
2022/06/21 08:54:32;;;;;;;4.65;1.83;;;22.50;20.80;;;;;;5058141;28;20277;-83
2022/06/21 08:57:17;;;;;;;2.90;1.83;;;22.70;20.80;;;;;;5069247;28;20233;-84
2022/06/21 08:59:57;;;;;;;12.20;2.40;;;22.80;22.00;;;;;;5069179;28;20619;-82
2022/06/21 09:02:36;;;;;;;3.42;1.80;;;23.20;20.30;;;;;;5067143;28;20193;-81
2022/06/21 09:05:37;;;;;;;5.70;1.88;;;23.80;18.90;;;;;;5067421;28;20201;-83
2022/06/21 09:08:29;;;;;;;3.67;1.90;;;23.80;18.80;;;;;;5064241;28;20222;-80
2022/06/21 09:11:25;;;;;;;3.65;2.33;;;24.40;18.40;;;;;;5075694;28;20235;-84
2022/06/21 09:14:13;;;;;;;3.58;2.00;;;24.10;19.00;;;;;;5088950;28;20291;-82
2022/06/21 09:17:05;;;;;;;3.55;2.00;;;24.20;19.10;;;;;;5065839;28;20198;-84
2022/06/21 09:19:49;;;;;;;3.33;1.75;;;25.10;18.80;;;;;;5117924;27;20242;-84
2022/06/21 09:22:30;;;;;;;6.05;2.22;;;25.20;17.20;;;;;;5130195;27;20577;-83
2022/06/21 09:25:11;;;;;;;5.78;1.95;;;25.50;16.90;;;;;;5121315;27;20195;-83
2022/06/21 09:28:04;;;;;;;4.25;2.20;;;25.20;17.90;;;;;;5128285;27;20187;-83
2022/06/21 09:30:38;;;;;;;2.53;2.10;;;24.70;17.90;;;;;;5130763;27;20234;-84
2022/06/21 09:33:19;;;;;;;4.85;2.35;;;25.00;18.40;;;;;;5118080;27;20196;-83
2022/06/21 09:36:03;;;;;;;5.45;2.45;;;24.90;18.10;;;;;;5130110;27;20932;-84
2022/06/21 09:38:39;;;;;;;4.03;2.30;;;24.70;18.50;;;;;;5129938;27;20544;-83
2022/06/21 09:41:13;;;;;;;4.63;2.08;;;25.00;19.90;;;;;;5126148;27;20257;-84
2022/06/21 09:43:51;;;;;;;4.90;2.30;;;24.70;18.70;;;;;;5148346;27;20203;-81
2022/06/21 09:46:38;;;;;;;3.25;2.10;;;24.40;19.20;;;;;;5134348;27;20199;-82
2022/06/21 09:49:19;;;;;;;5.13;2.40;;;24.40;21.70;;;;;;5117398;27;20222;-81
2022/06/21 09:52:08;;;;;;;3.17;2.30;;;24.20;21.70;;;;;;5123480;27;20199;-83
2022/06/21 09:54:37;;;;;;;2.80;2.20;;;24.00;22.20;;;;;;5127829;27;20210;-82
2022/06/21 09:57:16;;;;;;;3.47;2.20;;;23.90;22.50;;;;;;5131281;27;20203;-82
2022/06/21 09:59:50;;;;;;;7.65;2.58;;;23.50;23.20;;;;;;5127086;27;20657;-84
2022/06/21 10:02:31;;;;;;;7.32;2.50;;;23.20;23.00;;;;;;5132155;27;20205;-83
2022/06/21 10:05:09;;;;;;;4.45;2.65;;;23.00;24.10;;;;;;5120788;27;20199;-85
2022/06/21 10:07:50;;;;;;;5.80;2.40;;;23.10;23.90;;;;;;5120608;27;20279;-89
2022/06/21 10:10:34;;;;;;;3.88;2.47;;;22.80;26.10;;;;;;5131371;27;20671;-84
2022/06/21 10:13:14;;;;;;;4.25;2.58;;;22.50;26.10;;;;;;5129690;27;20677;-83
2022/06/21 10:15:50;;;;;;;4.32;2.33;;;22.50;28.30;;;;;;5123880;27;20191;-82
2022/06/21 10:18:55;;;;;;;3.38;2.40;;;22.20;27.20;;;;;;5143591;27;20190;-82
2022/06/21 10:21:48;;;;;;;4.25;2.92;;;22.70;28.90;;;;;;5129981;27;20728;-82
2022/06/21 10:24:44;;;;;;;2.97;2.30;;;23.50;26.90;;;;;;5122669;27;20198;-82
2022/06/21 10:27:38;;;;;;;4.28;2.53;;;24.60;22.70;;;;;;5125325;27;20557;-84
2022/06/21 10:30:35;;;;;;;7.07;2.90;;;24.30;23.50;;;;;;5136009;27;20193;-82
2022/06/21 10:33:23;;;;;;;4.28;2.95;;;24.00;23.40;;;;;;5130446;27;20191;-83
2022/06/21 10:36:18;;;;;;;5.82;3.13;;;24.30;23.80;;;;;;5150289;27;20191;-82
2022/06/21 10:39:21;;;;;;;6.45;2.70;;;23.40;27.30;;;;;;5132583;27;20229;-80
2022/06/21 10:45:11;;;;;;;3.78;2.90;;;25.60;23.20;;;;;;5135504;27;20197;-83
2022/06/21 10:47:55;;;;;;;4.00;2.90;;;26.30;20.10;;;;;;5145604;27;20224;-84
2022/06/21 10:50:41;;;;;;;6.13;3.20;;;27.20;18.50;;;;;;5131133;27;20187;-82
2022/06/21 10:53:36;;;;;;;6.40;3.45;;;26.10;19.80;;;;;;5138141;27;20203;-83
2022/06/21 10:59:20;;;;;;;5.07;3.50;;;26.10;21.70;;;;;;5123940;27;20548;-83
2022/06/21 11:02:12;;;;;;;7.90;3.55;;;26.70;20.60;;;;;;5133360;27;20189;-84
2022/06/21 11:04:58;;;;;;;6.75;3.35;;;27.80;18.70;;;;;;5122850;27;20195;-83
2022/06/21 11:07:33;;;;;;;5.57;3.72;;;27.70;18.40;;;;;;5127004;27;20195;-83
2022/06/21 11:10:23;;;;;;;4.50;3.47;;;26.20;20.10;;;;;;5128519;27;20220;-83
2022/06/21 11:12:53;;;;;;;5.72;3.45;;;26.40;21.00;;;;;;5120460;27;20218;-84
2022/06/21 11:15:36;;;;;;;6.70;3.58;;;26.40;24.90;;;;;;5128932;27;20205;-86
2022/06/21 11:18:18;;;;;;;4.18;3.20;;;26.60;23.30;;;;;;5132626;27;20190;-83
2022/06/21 11:21:12;;;;;;;5.60;3.53;;;26.20;21.70;;;;;;5121355;27;20199;-83
2022/06/21 11:23:55;;;;;;;4.70;3.08;;;26.10;27.40;;;;;;5125553;27;20202;-82
2022/06/21 11:26:36;;;;;;;5.80;3.45;;;26.00;25.20;;;;;;5116246;28;20206;-81
2022/06/21 11:29:10;;;;;;;5.43;3.63;;;26.00;22.90;;;;;;5120257;27;20219;-84
2022/06/21 11:32:03;;;;;;;5.68;3.60;;;25.30;25.40;;;;;;5119222;27;20241;-80
2022/06/21 11:34:41;;;;;;;5.55;3.33;;;25.20;26.90;;;;;;5121576;27;20200;-79
2022/06/21 11:37:36;;;;;;;4.30;3.47;;;25.30;24.80;;;;;;5128546;27;20199;-80
2022/06/21 11:40:25;;;;;;;4.47;3.10;;;25.60;24.80;;;;;;5125936;27;20681;-80
2022/06/21 11:42:56;;;;;;;4.65;3.55;;;25.70;24.60;;;;;;5126433;27;20349;-81
2022/06/21 11:45:58;;;;;;;6.28;3.30;;;25.60;27.20;;;;;;5125986;27;20742;-80
2022/06/21 11:49:07;;;;;;;3.67;3.38;;;25.70;24.90;;;;;;5127039;27;20263;-81
2022/06/21 11:52:06;;;;;;;5.78;3.35;;;25.80;24.90;;;;;;5129542;27;20207;-80
2022/06/21 11:54:38;;;;;;;5.07;3.50;;;25.90;26.20;;;;;;5128046;27;20199;-82
2022/06/21 11:57:17;;;;;;;4.20;3.22;;;26.00;25.10;;;;;;5131097;27;20202;-84
2022/06/21 11:59:53;;;;;;;6.22;3.30;;;25.70;25.80;;;;;;5127394;27;20199;-84
2022/06/21 12:02:26;;;;;;;4.50;3.40;;;25.60;26.60;;;;;;5124745;27;20194;-82
2022/06/21 12:05:00;;;;;;;6.28;3.22;;;25.80;27.60;;;;;;5129386;27;20202;-82
2022/06/21 12:07:47;;;;;;;5.03;3.15;;;25.90;26.10;;;;;;5128995;27;20230;-81
2022/06/21 12:10:42;;;;;;;5.63;3.30;;;25.90;24.50;;;;;;5119392;27;20242;-82
2022/06/21 12:13:21;;;;;;;7.30;3.72;;;25.60;24.80;;;;;;5124223;27;20212;-84
2022/06/21 12:16:16;;;;;;;5.13;3.15;;;25.40;25.70;;;;;;5120383;27;20199;-84
2022/06/21 12:18:47;;;;;;;6.57;3.33;;;25.10;27.20;;;;;;5127063;27;20249;-84
2022/06/21 12:21:16;;;;;;;4.75;3.22;;;25.30;27.20;;;;;;5125055;27;20215;-83
2022/06/21 12:23:46;;;;;;;6.40;3.45;;;25.40;26.70;;;;;;5128781;27;20282;-84
2022/06/21 12:26:16;;;;;;;6.10;3.78;;;25.40;26.70;;;;;;5130924;27;20207;-83
2022/06/21 12:28:44;;;;;;;4.80;3.35;;;24.70;28.90;;;;;;5129680;27;20233;-83
2022/06/21 12:31:21;;;;;;;6.72;3.45;;;24.70;29.30;;;;;;5130835;27;20192;-82
2022/06/21 12:34:28;;;;;;;6.50;3.22;;;24.70;29.00;;;;;;5134880;27;20201;-84
2022/06/21 12:37:04;;;;;;;5.03;3.50;;;25.10;29.00;;;;;;5130833;27;20183;-83
2022/06/21 12:39:50;;;;;;;4.55;3.20;;;25.50;28.20;;;;;;5125628;27;20202;-83
2022/06/21 12:42:49;;;;;;;5.78;3.40;;;25.50;27.00;;;;;;5135054;27;20580;-83
2022/06/21 12:45:52;;;;;;;5.93;3.53;;;25.80;27.50;;;;;;5046962;28;20743;-85
2022/06/21 12:48:42;;;;;;;6.32;3.40;;;25.60;25.70;;;;;;5050914;28;20197;-84
2022/06/21 12:51:27;;;;;;;4.57;3.22;;;25.90;26.10;;;;;;5049944;28;20299;-80
2022/06/21 12:54:23;;;;;;;5.72;3.58;;;26.00;26.10;;;;;;5054636;28;20235;-83
2022/06/21 12:57:20;;;;;;;6.93;3.85;;;25.80;26.00;;;;;;5048529;28;20210;-81
2022/06/21 13:00:14;;;;;;;5.82;3.50;;;26.20;25.50;;;;;;5051233;28;20208;-79
2022/06/21 13:03:22;;;;;;;7.25;3.72;;;26.40;26.40;;;;;;5042247;28;20289;-85
2022/06/21 13:06:05;;;;;;;6.38;4.07;;;25.90;26.50;;;;;;5042983;28;20661;-80
2022/06/21 13:09:05;;;;;;;4.22;3.42;;;25.80;26.30;;;;;;5039243;28;20201;-81
2022/06/21 13:12:05;;;;;;;3.83;3.40;;;26.00;25.50;;;;;;4975248;28;20208;-81
2022/06/21 13:14:58;;;;;;;6.32;3.38;;;26.10;25.10;;;;;;4967265;28;20341;-80
2022/06/21 13:18:07;;;;;;;28.25;17.27;;;26.10;25.80;;;;;;4970487;28;20208;-81
2022/06/21 13:21:01;;;;;;;4.97;3.90;;;26.20;26.70;;;;;;4875749;29;20276;-81
2022/06/21 13:23:40;;;;;;;6.72;3.88;;;26.20;25.40;;;;;;4934302;28;20210;-84
2022/06/21 13:26:28;;;;;;;8.15;3.45;;;25.70;26.50;;;;;;4956942;28;20203;-82
2022/06/21 13:29:11;;;;;;;65.20;40.53;;;25.80;26.40;;;;;;4954417;28;20224;-81
2022/06/21 13:31:46;;;;;;;6.47;3.53;;;25.90;27.30;;;;;;4946580;28;20216;-86
2022/06/21 13:34:32;;;;;;;7.68;4.10;;;25.50;28.10;;;;;;4951173;28;20216;-84
2022/06/21 13:37:26;;;;;;;7.47;3.70;;;25.40;26.50;;;;;;4959379;28;20205;-81
2022/06/21 13:40:30;;;;;;;4.13;3.60;;;25.70;26.80;;;;;;4959278;28;20378;-88
2022/06/21 13:43:34;;;;;;;7.93;4.57;;;25.70;26.70;;;;;;4958479;28;20220;-81
2022/06/21 13:46:24;;;;;;;15.13;8.25;;;25.40;27.90;;;;;;4951104;28;20205;-83
2022/06/21 13:49:16;;;;;;;9.85;4.10;;;25.50;28.80;;;;;;5023666;28;20233;-83
2022/06/21 13:51:54;;;;;;;7.32;3.80;;;25.40;28.60;;;;;;5030398;28;20206;-83
2022/06/21 13:54:50;;;;;;;6.78;3.78;;;25.40;27.60;;;;;;5019080;28;20198;-84
2022/06/21 13:57:34;;;;;;;4.35;3.50;;;25.70;27.40;;;;;;5041041;27;20210;-85
2022/06/21 14:00:31;;;;;;;5.00;3.47;;;25.70;27.90;;;;;;5126428;27;20287;-81
2022/06/21 14:03:04;;;;;;;4.63;3.25;;;25.90;27.00;;;;;;5131407;27;20196;-81
2022/06/21 14:05:37;;;;;;;4.57;3.53;;;26.00;27.00;;;;;;5119532;27;20212;-82
2022/06/21 14:08:08;;;;;;;4.68;3.70;;;26.00;27.40;;;;;;5126154;27;20195;-81
2022/06/21 14:10:43;;;;;;;7.32;3.85;;;26.10;26.20;;;;;;5138043;27;20237;-81
2022/06/21 14:13:15;;;;;;;5.25;3.55;;;26.10;26.20;;;;;;5133384;27;20191;-82